• Join FlightAware (Why Join?)
  • Login
  • US Flag 
11:01AM EDT


 

Airport Tracker/Info


-or-


 

Live Flight TrackerFlight Track Log ✈ FLG3735 ✈ 25-Apr-2013 ✈ KDTW - KALB

Flight Track Log - Related Links

Times and Time Zones

All times are in EDT time to prevent confusion due to time zone crossing. See the FLG3735 flight status page for this flight to view local times or setup timezone preferences in your user account.

Time Position Orientation Groundspeed Altitude Reporting Facility
EDT Latitude Longitude Course Direction KTS MPH feet Rate Location/Type
09:49PM 42.2036 -83.3556 90° East 151 174 1,200  Level Cleveland Center
09:49PM 42.1869 -83.3547 178° South 165 190 2,200 2,400 Climbing Cleveland Center
09:50PM 42.1289 -83.3494 176° South 214 246 4,600 2,280 Climbing Cleveland Center
09:51PM 42.0975 -83.2586 115° Southeast 280 322 7,100 2,220 Climbing Cleveland Center
09:52PM 42.3177 -82.7392 82° East  Level FlightAware Approximate
09:53PM 42.3335 -82.5826 71° East  Level FlightAware Approximate
09:53PM 42.1467 -83.1150 65° Northeast 292 336 10,700  Level Cleveland Center
09:54PM 42.3667 -82.4351 90° East  Level FlightAware Approximate
09:54PM 42.1867 -82.9989 65° Northeast 316 364 12,100  Level Cleveland Center
09:55PM 42.2289 -82.8742 65° Northeast 340 391 13,900 900 Climbing Cleveland Center
09:56PM 42.2731 -82.7411 66° East 368 423 14,000 120 Climbing Cleveland Center
09:57PM 42.3217 -82.5967 65° Northeast 397 457 14,200 1,440 Climbing Cleveland Center
09:58PM 42.3636 -82.4575 68° East 402 463 16,900 2,100 Climbing Cleveland Center
09:59PM 42.3617 -82.3086 91° East 388 447 18,500 1,500 Climbing Cleveland Center
10:00PM 42.3558 -82.1511 93° East 400 460 20,000 1,380 Climbing Cleveland Center
10:01PM 42.3475 -81.9767 94° East 412 474 21,300 1,260 Climbing Cleveland Center
10:02PM 42.3389 -81.8164 94° East 429 494 22,600 1,200 Climbing Cleveland Center
10:03PM 42.3344 -81.6506 92° East 429 494 23,700 960 Climbing Cleveland Center
10:04PM 42.3275 -81.4847 93° East 441 507 24,600 840 Climbing Cleveland Center
10:05PM 42.3203 -81.3133 93° East 447 514 25,400 720 Climbing Cleveland Center
10:06PM 42.3108 -81.1419 94° East 455 524 26,100 600 Climbing Cleveland Center
10:07PM 42.3011 -80.9650 94° East 468 539 26,700 540 Climbing Cleveland Center
10:08PM 42.2933 -80.8106 94° East 468 539 27,300 540 Climbing Cleveland Center
10:09PM 42.2831 -80.6336 94° East 473 544 27,900 420 Climbing Cleveland Center
10:10PM 42.2725 -80.4372 94° East 468 539 28,200 540 Climbing Cleveland Center
10:11PM 42.2639 -80.2803 94° East 478 550 29,000 360 Climbing Cleveland Center
10:12PM 42.2508 -80.1006 96° East 478 550 29,000  Level Cleveland Center
10:13PM 42.2394 -79.9214 95° East 478 550 29,000  Level Cleveland Center
10:14PM 42.2300 -79.7364 94° East 478 550 29,000  Level Cleveland Center
10:15PM 42.2200 -79.5486 94° East 483 556 29,000  Level Cleveland Center
10:16PM 42.2058 -79.3611 96° East 495 570 29,000  Level Cleveland Center
10:17PM 42.1931 -79.1736 95° East 501 577 29,000  Level Cleveland Center
10:18PM 42.2075 -78.9881 84° East 495 570 29,000  Level Cleveland Center
10:19PM 42.2317 -78.7914 81° East 481 554 29,000  Level Cleveland Center
10:20PM 42.2558 -78.6111 80° East 481 554 29,000  Level Cleveland Center
10:21PM 42.2775 -78.4308 81° East 486 559 29,000  Level Cleveland Center
10:22PM 42.2992 -78.2503 81° East 486 559 29,000  Level Cleveland Center
10:23PM 42.3203 -78.0725 81° East 486 559 29,000  Level Cleveland Center
10:24PM 42.3433 -77.8919 80° East 486 559 29,000  Level Cleveland Center
10:25PM 42.3642 -77.7139 81° East 486 559 29,000  Level Cleveland Center
10:26PM 42.3828 -77.5500 81° East 486 559 29,000  Level Cleveland Center
10:28PM 42.4219 -77.1886 82° East 492 566 29,000  Level Boston Center
10:29PM 42.4417 -77.0100 81° East 492 566 29,000  Level Boston Center
10:30PM 42.4614 -76.8283 82° East 487 560 29,000 -240 Level Boston Center
10:32PM 42.4772 -76.6044 84° East  Level FlightAware Approximate
10:34PM 42.5419 -76.0842 79° East 486 559 28,000  Level Boston Center
10:35PM 42.5581 -75.9017 83° East 486 559 26,400 -1,560 Descending Boston Center
10:36PM 42.5614 -75.7214 89° East 486 559 24,900 -1,440 Descending Boston Center
10:38PM 42.5931 -75.4988 79° East  Level FlightAware Approximate
10:39PM 42.5940 -75.4921 79° East  Level FlightAware Approximate
10:39PM 42.5350 -75.2269 79° East 429 494 20,700  Level Boston Center
10:40PM 42.5322 -75.0886 92° East 396 456 18,700 -1,860 Descending Boston Center
10:41PM 42.5247 -74.9558 94° East 368 423 17,000 -1,860 Descending Boston Center
10:42PM 42.5211 -74.8261 92° East 349 402 15,000 -2,040 Descending Boston Center
10:43PM 42.5100 -74.6539 95° East 316 364 12,200 -1,980 Descending Boston Center
10:44PM 42.5053 -74.5833 95° East 324 373 11,100 -960 Descending Boston Center
10:45PM 42.5033 -74.4622 91° East 296 341 10,600 -1,020 Descending Boston Center
10:46PM 42.5114 -74.3611 84° East 298 343 9,100 -1,560 Descending Boston Center
10:47PM 42.5194 -74.2431 85° East 292 336 7,500 -1,500 Descending Boston Center
10:48PM 42.5272 -74.1417 84° East 288 331 6,100 -1,440 Descending Boston Center
10:49PM 42.5328 -74.0517 85° East 283 326 4,800 -1,080 Descending Boston Center
10:50PM 42.5425 -73.9450 83° East 265 305 4,000 -480 Descending Boston Center
10:51PM 42.5397 -73.8461 92° East 214 246 3,800 -540 Descending Boston Center
10:52PM 42.5611 -73.7986 59° Northeast 175 201 3,000 -960 Descending Boston Center